Alps, New York
Current Conditions -  °F | °C
As of 7:51 PM on Thursday 30 Oct 2014 (Local Time) from KALB Reporting Station
Few Clouds Few Clouds  
Wind Chill: 40°   Ceiling: Unl
Heat Index: 45°   Visibility: 10mi
Dew Point: 33°   Wind: 9mph
Humidity: 63%   Direction: 280°W
Pressure: 30.02"   Gusts: NA
Location:  42.6497°N, 73.5273°W
Report Text: KALB 302351Z 28008KT 10SM FEW060 07/01 A3002 RMK AO2 SLP168 T00720006 10133 20072 51015
Loading
Personal Weather Stations






























Interactive Weather Map
Tropical Storm Tracking
New forecast layout! Learn more

10-Day Weather Forecast

Advertisements
Track Severe Weather on mobile